Time;durP1;ratioP1;P1;durP2;ratioP2;P2;SDS_P1;SDS_P2;PMS_P1;PMS_P2;Temp;Humidity;BMP_temperature;BMP_pressure;BME280_temperature;BME280_humidity;BME280_pressure;Samples;Min_cycle;Max_cycle;Signal;HPM_P1;HPM_P2
2023/06/07 00:00:49;;;;;;;;;;;;;;;9.11;100.00;93136.97;2578891;23;20336;-83
2023/06/07 00:01:56;;;;;;;;;;;;;;;9.08;100.00;93135.84;2567788;23;19924;-83
2023/06/07 00:03:09;;;;;;;;;;;;;;;8.97;100.00;93137.94;2579385;23;19903;-83
2023/06/07 00:04:15;;;;;;;;;;;;;;;8.86;100.00;93139.25;2568095;23;19904;-85
2023/06/07 00:05:21;;;;;;;;;;;;;;;8.94;100.00;93127.34;2557221;23;19915;-83
2023/06/07 00:06:28;;;;;;;;;;;;;;;8.96;100.00;93128.44;2556144;23;20051;-84
2023/06/07 00:07:44;;;;;;;;;;;;;;;8.98;100.00;93125.38;2558021;23;19916;-83
2023/06/07 00:08:53;;;;;;;;;;;;;;;8.96;100.00;93125.78;2567998;23;20231;-83
2023/06/07 00:09:59;;;;;;;;;;;;;;;8.88;100.00;93135.03;2559016;23;20314;-85
2023/06/07 00:11:05;;;;;;;;;;;;;;;8.83;100.00;93133.59;2555638;23;19951;-84
2023/06/07 00:12:12;;;;;;;;;;;;;;;8.90;100.00;93135.38;2557584;23;19950;-85
2023/06/07 00:13:19;;;;;;;;;;;;;;;8.97;100.00;93127.28;2556125;23;20330;-83
2023/06/07 00:14:27;;;;;;;;;;;;;;;9.10;100.00;93118.72;2558332;23;20230;-82
2023/06/07 00:15:33;;;;;;;;;;;;;;;9.00;100.00;93123.81;2569335;23;20393;-82
2023/06/07 00:16:40;;;;;;;;;;;;;;;9.07;100.00;93118.34;2556094;23;19907;-84
2023/06/07 00:17:47;;;;;;;;;;;;;;;9.06;100.00;93119.53;2558247;23;20415;-84
2023/06/07 00:18:55;;;;;;;;;;;;;;;8.97;100.00;93127.28;2568854;23;20309;-83
2023/06/07 00:20:01;;;;;;;;;;;;;;;8.86;100.00;93132.00;2556765;23;20007;-84
2023/06/07 00:21:10;;;;;;;;;;;;;;;8.77;100.00;93124.53;2557187;23;20240;-82
2023/06/07 00:22:16;;;;;;;;;;;;;;;8.74;100.00;93127.25;2556453;23;19912;-85
2023/06/07 00:23:26;;;;;;;;;;;;;;;8.66;100.00;93131.19;2568928;22;19907;-84
2023/06/07 00:24:33;;;;;;;;;;;;;;;8.66;100.00;93128.53;2580449;23;19907;-83
2023/06/07 00:25:41;;;;;;;;;;;;;;;8.73;100.00;93128.41;2557019;23;19982;-84
2023/06/07 00:26:47;;;;;;;;;;;;;;;8.83;100.00;93122.94;2557208;23;20335;-82
2023/06/07 00:27:54;;;;;;;;;;;;;;;8.87;100.00;93125.53;2558295;23;19932;-83
2023/06/07 00:28:59;;;;;;;;;;;;;;;8.85;100.00;93127.84;2556689;23;19904;-84
2023/06/07 00:30:06;;;;;;;;;;;;;;;8.81;100.00;93121.81;2556697;23;19962;-83
2023/06/07 00:31:13;;;;;;;;;;;;;;;8.73;100.00;93123.06;2555909;23;19979;-83
2023/06/07 00:32:20;;;;;;;;;;;;;;;8.55;100.00;93125.97;2557595;23;19974;-83
2023/06/07 00:33:26;;;;;;;;;;;;;;;8.45;100.00;93130.31;2568857;23;19912;-84
2023/06/07 00:34:32;;;;;;;;;;;;;;;8.58;100.00;93128.59;2569053;23;19977;-84
2023/06/07 00:35:38;;;;;;;;;;;;;;;8.58;100.00;93125.19;2569840;22;19911;-84
2023/06/07 00:36:46;;;;;;;;;;;;;;;8.58;100.00;93127.84;2593344;22;19914;-82
2023/06/07 00:37:53;;;;;;;;;;;;;;;8.50;100.00;93129.09;2569427;23;19927;-84
2023/06/07 00:39:02;;;;;;;;;;;;;;;8.58;100.00;93128.59;2569602;23;19915;-84
2023/06/07 00:40:25;;;;;;;;;;;;;;;8.48;100.00;93126.84;2575046;22;19903;-83
2023/06/07 00:41:31;;;;;;;;;;;;;;;8.41;100.00;93123.53;2580847;23;19994;-85
2023/06/07 00:42:40;;;;;;;;;;;;;;;8.46;100.00;93128.41;2557771;23;20036;-83
2023/06/07 00:43:47;;;;;;;;;;;;;;;8.56;100.00;93130.94;2559244;23;19939;-84
2023/06/07 00:44:54;;;;;;;;;;;;;;;8.44;100.00;93130.72;2570049;23;19911;-84
2023/06/07 00:46:00;;;;;;;;;;;;;;;8.40;100.00;93138.00;2570470;22;20370;-83
2023/06/07 00:47:07;;;;;;;;;;;;;;;8.38;100.00;93125.06;2582136;22;19940;-82
2023/06/07 00:48:12;;;;;;;;;;;;;;;8.44;100.00;93126.16;2580941;23;19907;-85
2023/06/07 00:49:19;;;;;;;;;;;;;;;8.46;100.00;93123.81;2557514;23;19915;-84
2023/06/07 00:50:25;;;;;;;;;;;;;;;8.46;100.00;93126.47;2569402;23;20293;-84
2023/06/07 00:51:35;;;;;;;;;;;;;;;8.50;100.00;93129.84;2558210;23;19959;-83
2023/06/07 00:52:42;;;;;;;;;;;;;;;8.47;100.00;93129.91;2559338;23;19935;-84
2023/06/07 00:53:49;;;;;;;;;;;;;;;8.32;100.00;93126.66;2582404;22;19907;-84
2023/06/07 00:54:58;;;;;;;;;;;;;;;8.37;100.00;93133.47;2570103;23;19907;-82
2023/06/07 00:56:07;;;;;;;;;;;;;;;8.44;100.00;93131.47;2569936;23;20264;-83
2023/06/07 00:57:12;;;;;;;;;;;;;;;8.32;100.00;93131.97;2570304;23;19904;-83
2023/06/07 00:58:21;;;;;;;;;;;;;;;8.28;100.00;93123.28;2569349;23;19982;-82
2023/06/07 00:59:28;;;;;;;;;;;;;;;8.35;100.00;93120.53;2570592;23;19979;-83
2023/06/07 01:00:37;;;;;;;;;;;;;;;8.31;100.00;93127.81;2557990;23;20338;-85
2023/06/07 01:01:45;;;;;;;;;;;;;;;8.34;100.00;93127.03;2558363;23;19954;-83
2023/06/07 01:02:52;;;;;;;;;;;;;;;8.26;100.00;93131.69;2571809;22;20213;-85
2023/06/07 01:04:00;;;;;;;;;;;;;;;8.40;100.00;93128.09;2569897;23;19904;-83
2023/06/07 01:05:10;;;;;;;;;;;;;;;8.40;100.00;93133.44;2570132;23;19907;-84
2023/06/07 01:06:22;;;;;;;;;;;;;;;8.28;100.00;93126.69;2572536;22;20380;-83
2023/06/07 01:07:29;;;;;;;;;;;;;;;8.31;100.00;93130.47;2570525;23;19915;-84
2023/06/07 01:08:37;;;;;;;;;;;;;;;8.24;100.00;93131.31;2558804;23;19934;-85
2023/06/07 01:09:45;;;;;;;;;;;;;;;8.28;100.00;93128.59;2558267;23;19908;-82
2023/06/07 01:10:51;;;;;;;;;;;;;;;8.28;100.00;93133.94;2557664;23;19908;-83
2023/06/07 01:11:59;;;;;;;;;;;;;;;8.24;100.00;93130.56;2558146;23;20014;-84
2023/06/07 01:13:07;;;;;;;;;;;;;;;8.17;100.00;93130.66;2571307;22;19915;-83
2023/06/07 01:14:14;;;;;;;;;;;;;;;8.10;100.00;93128.81;2569493;23;19904;-82
2023/06/07 01:15:20;;;;;;;;;;;;;;;8.12;100.00;93134.53;2558114;23;19908;-83
2023/06/07 01:16:27;;;;;;;;;;;;;;;8.02;100.00;93132.72;2557607;23;20394;-83
2023/06/07 01:17:37;;;;;;;;;;;;;;;8.08;100.00;93136.47;2558339;23;19904;-82
2023/06/07 01:18:47;;;;;;;;;;;;;;;8.12;100.00;93128.41;2569911;23;19915;-85
2023/06/07 01:19:57;;;;;;;;;;;;;;;8.10;100.00;93126.16;2570127;23;19907;-83
2023/06/07 01:21:05;;;;;;;;;;;;;;;8.04;100.00;93127.78;2559175;23;20248;-84
2023/06/07 01:22:11;;;;;;;;;;;;;;;7.98;100.00;93124.78;2558440;23;20339;-84
2023/06/07 01:23:28;;;;;;;;;;;;;;;8.02;100.00;93119.41;2557877;23;19923;-83
2023/06/07 01:24:35;;;;;;;;;;;;;;;7.99;100.00;93123.66;2562496;23;19908;-83
2023/06/07 01:25:43;;;;;;;;;;;;;;;8.00;100.00;93119.06;2582956;22;19907;-84
2023/06/07 01:26:53;;;;;;;;;;;;;;;8.02;100.00;93119.41;2582030;22;19908;-83
2023/06/07 01:28:02;;;;;;;;;;;;;;;7.99;100.00;93121.00;2580232;23;19911;-83
2023/06/07 01:29:08;;;;;;;;;;;;;;;7.93;100.00;93121.81;2569685;23;19915;-83
2023/06/07 01:30:18;;;;;;;;;;;;;;;7.93;100.00;93122.56;2568922;23;19908;-84
2023/06/07 01:31:25;;;;;;;;;;;;;;;7.89;100.00;93118.44;2569288;23;19942;-82
2023/06/07 01:32:32;;;;;;;;;;;;;;;7.86;100.00;93117.34;2570649;22;19912;-85
2023/06/07 01:33:43;;;;;;;;;;;;;;;7.83;100.00;93110.91;2580250;23;19904;-84
2023/06/07 01:34:49;;;;;;;;;;;;;;;7.84;100.00;93119.63;2559241;23;19907;-85
2023/06/07 01:35:56;;;;;;;;;;;;;;;7.87;100.00;93118.09;2558278;23;19908;-84
2023/06/07 01:37:03;;;;;;;;;;;;;;;7.90;100.00;93120.72;2557197;23;20327;-85
2023/06/07 01:38:11;;;;;;;;;;;;;;;7.91;100.00;93113.47;2570475;22;20352;-83
2023/06/07 01:39:20;;;;;;;;;;;;;;;7.94;100.00;93113.41;2581949;22;19915;-84
2023/06/07 01:40:27;;;;;;;;;;;;;;;7.80;100.00;93113.59;2581926;22;19913;-84
2023/06/07 01:41:36;;;;;;;;;;;;;;;7.83;100.00;93110.91;2581246;22;19907;-83
2023/06/07 01:42:44;;;;;;;;;;;;;;;7.79;100.00;93110.19;2580737;23;19974;-83
2023/06/07 01:43:50;;;;;;;;;;;;;;;7.74;100.00;93109.88;2559399;23;19905;-84
2023/06/07 01:45:01;;;;;;;;;;;;;;;7.81;100.00;93109.78;2557688;23;19912;-83
2023/06/07 01:46:07;;;;;;;;;;;;;;;7.78;100.00;93107.91;2569732;23;19931;-83
2023/06/07 01:47:15;;;;;;;;;;;;;;;7.72;100.00;93112.91;2569335;23;20314;-84
2023/06/07 01:48:24;;;;;;;;;;;;;;;7.72;100.00;93107.59;2557869;23;19928;-85
2023/06/07 01:49:30;;;;;;;;;;;;;;;7.78;100.00;93105.25;2570723;22;20359;-84
2023/06/07 01:50:37;;;;;;;;;;;;;;;7.82;100.00;93105.97;2579763;23;19911;-85
2023/06/07 01:51:43;;;;;;;;;;;;;;;7.76;100.00;93107.56;2557354;23;19951;-82
2023/06/07 01:52:50;;;;;;;;;;;;;;;7.75;100.00;93114.03;2557740;23;19932;-81
2023/06/07 01:53:57;;;;;;;;;;;;;;;7.78;100.00;93106.00;2569374;22;20247;-84
2023/06/07 01:55:07;;;;;;;;;;;;;;;7.82;100.00;93111.31;2580777;23;19910;-83
2023/06/07 01:56:25;;;;;;;;;;;;;;;7.77;100.00;93114.38;2569579;23;19914;-82
2023/06/07 01:57:54;;;;;;;;;;;;;;;7.74;100.00;93107.97;2562860;23;19920;-81
2023/06/07 01:59:04;;;;;;;;;;;;;;;7.63;100.00;93102.00;2579583;22;19907;-82
2023/06/07 02:00:13;;;;;;;;;;;;;;;7.54;100.00;93110.44;2580489;23;19911;-85
2023/06/07 02:01:24;;;;;;;;;;;;;;;7.53;100.00;93108.19;2579717;23;19903;-83
2023/06/07 02:02:57;;;;;;;;;;;;;;;7.43;100.00;93099.16;2569680;23;19915;-83
2023/06/07 02:04:07;;;;;;;;;;;;;;;7.49;100.00;93099.47;2568364;22;19910;-84
2023/06/07 02:05:37;;;;;;;;;;;;;;;7.53;100.00;93100.22;2580454;23;20311;-84
2023/06/07 02:06:46;;;;;;;;;;;;;;;7.56;100.00;93094.09;2586534;22;19925;-82
2023/06/07 02:08:15;;;;;;;;;;;;;;;7.50;100.00;93091.09;2569481;23;19995;-85
2023/06/07 02:09:40;;;;;;;;;;;;;;;7.62;100.00;93094.41;2566821;23;19908;-84
2023/06/07 02:10:52;;;;;;;;;;;;;;;7.58;100.00;93097.84;2572113;23;19912;-83
2023/06/07 02:12:03;;;;;;;;;;;;;;;7.53;100.00;93092.97;2559949;23;20258;-84
2023/06/07 02:13:21;;;;;;;;;;;;;;;7.61;100.00;93100.88;2560061;23;20262;-85
2023/06/07 02:14:38;;;;;;;;;;;;;;;7.47;100.00;93099.88;2562682;23;19911;-84
2023/06/07 02:15:50;;;;;;;;;;;;;;;7.44;100.00;93098.00;2562228;23;20351;-82
2023/06/07 02:16:57;;;;;;;;;;;;;;;7.42;100.00;93095.00;2572807;22;19919;-83
2023/06/07 02:18:04;;;;;;;;;;;;;;;7.49;100.00;93097.56;2580681;23;19969;-83
2023/06/07 02:19:12;;;;;;;;;;;;;;;7.61;100.00;93096.31;2569264;23;20320;-82
2023/06/07 02:20:19;;;;;;;;;;;;;;;7.48;100.00;93097.97;2570965;22;19933;-83
2023/06/07 02:21:26;;;;;;;;;;;;;;;7.47;100.00;93097.22;2568346;23;20271;-84
2023/06/07 02:22:33;;;;;;;;;;;;;;;7.44;100.00;93094.59;2569496;22;19915;-84
2023/06/07 02:23:41;;;;;;;;;;;;;;;7.44;100.00;93098.00;2569135;23;19966;-83
2023/06/07 02:24:47;;;;;;;;;;;;;;;7.42;100.00;93095.00;2580063;23;20285;-84
2023/06/07 02:25:53;;;;;;;;;;;;;;;7.48;100.00;93090.00;2568612;23;19939;-83
2023/06/07 02:27:00;;;;;;;;;;;;;;;7.52;100.00;93094.13;2557703;23;19947;-81
2023/06/07 02:28:06;;;;;;;;;;;;;;;7.63;100.00;93088.69;2557667;23;20054;-82
2023/06/07 02:29:13;;;;;;;;;;;;;;;7.57;100.00;93091.03;2557964;23;20303;-84
2023/06/07 02:30:21;;;;;;;;;;;;;;;7.50;100.00;93088.44;2570469;22;20378;-83
2023/06/07 02:31:30;;;;;;;;;;;;;;;7.29;100.00;93086.78;2567763;23;19927;-83
2023/06/07 02:32:38;;;;;;;;;;;;;;;7.19;100.00;93084.97;2569200;23;19984;-83
2023/06/07 02:33:45;;;;;;;;;;;;;;;7.31;100.00;93095.09;2558279;23;20336;-82
2023/06/07 02:34:51;;;;;;;;;;;;;;;7.28;100.00;93095.13;2558101;23;19904;-84
2023/06/07 02:35:58;;;;;;;;;;;;;;;7.26;100.00;93089.47;2557552;23;19904;-85
2023/06/07 02:37:04;;;;;;;;;;;;;;;7.32;100.00;93087.88;2569307;23;19904;-83
2023/06/07 02:38:14;;;;;;;;;;;;;;;7.31;100.00;93095.09;2569409;23;19908;-85
2023/06/07 02:39:21;;;;;;;;;;;;;;;7.33;100.00;93097.34;2582503;22;19918;-83
2023/06/07 02:40:28;;;;;;;;;;;;;;;7.30;100.00;93098.16;2582158;22;19908;-85
2023/06/07 02:41:34;;;;;;;;;;;;;;;7.35;100.00;93096.97;2569322;23;19908;-84
2023/06/07 02:42:47;;;;;;;;;;;;;;;7.23;100.00;93095.56;2558109;23;19904;-83
2023/06/07 02:43:54;;;;;;;;;;;;;;;7.19;100.00;93086.88;2560741;23;20339;-85
2023/06/07 02:45:02;;;;;;;;;;;;;;;7.18;100.00;93094.09;2557976;23;19904;-84
2023/06/07 02:46:08;;;;;;;;;;;;;;;7.11;100.00;93093.38;2569244;23;20347;-85
2023/06/07 02:47:15;;;;;;;;;;;;;;;7.14;100.00;93092.59;2570184;22;19910;-82
2023/06/07 02:48:20;;;;;;;;;;;;;;;7.18;100.00;93096.00;2569495;23;20653;-83
2023/06/07 02:49:26;;;;;;;;;;;;;;;7.10;100.00;93089.97;2582264;22;20688;-82
2023/06/07 02:50:32;;;;;;;;;;;;;;;7.04;100.00;93096.88;2580004;23;19911;-84
2023/06/07 02:51:40;;;;;;;;;;;;;;;7.13;100.00;93088.44;2558751;23;19930;-83
2023/06/07 02:52:46;;;;;;;;;;;;;;;7.13;100.00;93083.88;2558553;23;20266;-84
2023/06/07 02:53:53;;;;;;;;;;;;;;;7.18;100.00;93086.13;2581497;22;19915;-85
2023/06/07 02:54:59;;;;;;;;;;;;;;;7.24;100.00;93091.75;2569757;23;19915;-84
2023/06/07 02:56:06;;;;;;;;;;;;;;;7.25;100.00;93083.41;2557901;23;19919;-82
2023/06/07 02:57:13;;;;;;;;;;;;;;;7.15;100.00;93089.56;2570724;22;19904;-83
2023/06/07 02:58:21;;;;;;;;;;;;;;;7.14;100.00;93096.03;2569468;23;19904;-83
2023/06/07 02:59:29;;;;;;;;;;;;;;;7.10;100.00;93083.91;2569000;23;19931;-84
2023/06/07 03:00:35;;;;;;;;;;;;;;;7.08;100.00;93089.63;2558308;23;19912;-83
2023/06/07 03:01:43;;;;;;;;;;;;;;;7.05;100.00;93088.50;2580578;23;19907;-83
2023/06/07 03:02:47;;;;;;;;;;;;;;;7.02;100.00;93085.88;2569351;23;19910;-83
2023/06/07 03:03:55;;;;;;;;;;;;;;;6.96;100.00;93085.56;2556966;23;19904;-83
2023/06/07 03:05:02;;;;;;;;;;;;;;;6.90;100.00;93089.03;2569299;23;19915;-84
2023/06/07 03:06:09;;;;;;;;;;;;;;;6.95;100.00;93094.69;2558010;23;20315;-84
2023/06/07 03:07:16;;;;;;;;;;;;;;;7.00;100.00;93086.28;2558263;23;19904;-85
2023/06/07 03:08:23;;;;;;;;;;;;;;;6.96;100.00;93093.53;2570246;22;19907;-84
2023/06/07 03:09:30;;;;;;;;;;;;;;;6.95;100.00;93099.25;2568721;23;19915;-84
2023/06/07 03:10:37;;;;;;;;;;;;;;;6.96;100.00;93101.50;2557493;23;20248;-84
2023/06/07 03:11:42;;;;;;;;;;;;;;;7.01;100.00;93095.00;2558121;23;19947;-84
2023/06/07 03:12:47;;;;;;;;;;;;;;;7.04;100.00;93092.31;2556202;23;19904;-85
2023/06/07 03:13:53;;;;;;;;;;;;;;;7.03;100.00;93096.13;2568451;23;19935;-83
2023/06/07 03:14:59;;;;;;;;;;;;;;;6.94;100.00;93087.84;2568777;23;19908;-84
2023/06/07 03:16:06;;;;;;;;;;;;;;;6.92;100.00;93086.72;2570041;22;19904;-84
2023/06/07 03:17:12;;;;;;;;;;;;;;;6.91;100.00;93087.88;2580077;23;19915;-83
2023/06/07 03:18:20;;;;;;;;;;;;;;;6.94;100.00;93087.09;2569526;23;19955;-84
2023/06/07 03:19:30;;;;;;;;;;;;;;;6.89;100.00;93088.28;2570204;22;20331;-82
2023/06/07 03:20:36;;;;;;;;;;;;;;;6.91;100.00;93085.97;2569170;23;20276;-83
2023/06/07 03:21:44;;;;;;;;;;;;;;;6.91;100.00;93085.97;2570217;22;19987;-83
2023/06/07 03:22:51;;;;;;;;;;;;;;;6.93;100.00;93085.56;2581642;22;19958;-84
2023/06/07 03:23:57;;;;;;;;;;;;;;;6.85;100.00;93081.47;2581581;22;19907;-83
2023/06/07 03:25:04;;;;;;;;;;;;;;;6.88;100.00;93089.41;2569678;23;19911;-82
2023/06/07 03:26:12;;;;;;;;;;;;;;;6.92;100.00;93079.50;2570948;22;19907;-83
2023/06/07 03:27:17;;;;;;;;;;;;;;;6.95;100.00;93086.69;2569819;23;19953;-82
2023/06/07 03:28:24;;;;;;;;;;;;;;;6.96;100.00;93082.88;2558413;23;19904;-84
2023/06/07 03:29:31;;;;;;;;;;;;;;;6.97;100.00;93084.41;2558166;23;19991;-83
2023/06/07 03:30:37;;;;;;;;;;;;;;;7.02;100.00;93083.22;2558203;23;20332;-82
2023/06/07 03:31:44;;;;;;;;;;;;;;;7.02;100.00;93086.66;2569601;23;19907;-83
2023/06/07 03:32:49;;;;;;;;;;;;;;;7.03;100.00;93090.06;2545815;23;19939;-83
2023/06/07 03:33:56;;;;;;;;;;;;;;;7.00;100.00;93080.97;2558389;23;19908;-83
2023/06/07 03:35:03;;;;;;;;;;;;;;;7.00;100.00;93080.22;2557026;23;19908;-84
2023/06/07 03:36:11;;;;;;;;;;;;;;;7.02;100.00;93089.31;2556888;23;19910;-84
2023/06/07 03:37:18;;;;;;;;;;;;;;;6.96;100.00;93082.88;2559163;23;19908;-84
2023/06/07 03:38:24;;;;;;;;;;;;;;;6.92;100.00;93076.84;2570176;23;19931;-83
2023/06/07 03:39:31;;;;;;;;;;;;;;;6.92;100.00;93087.47;2557351;23;19914;-84
2023/06/07 03:40:38;;;;;;;;;;;;;;;6.88;100.00;93086.75;2557815;23;19927;-83
2023/06/07 03:41:46;;;;;;;;;;;;;;;6.87;100.00;93082.59;2582236;22;20248;-83
2023/06/07 03:42:52;;;;;;;;;;;;;;;6.88;100.00;93078.78;2580992;23;20338;-83
2023/06/07 03:43:57;;;;;;;;;;;;;;;6.84;100.00;93088.69;2556240;23;19910;-81
2023/06/07 03:45:04;;;;;;;;;;;;;;;6.89;100.00;93085.63;2545566;23;19908;-82
2023/06/07 03:46:11;;;;;;;;;;;;;;;6.94;100.00;93076.47;2569049;23;19908;-82
2023/06/07 03:47:20;;;;;;;;;;;;;;;6.94;100.00;93081.78;2568345;23;20007;-84
2023/06/07 03:48:28;;;;;;;;;;;;;;;6.94;100.00;93079.88;2570441;23;19912;-83
2023/06/07 03:49:36;;;;;;;;;;;;;;;6.97;100.00;93070.34;2569624;23;19958;-82
2023/06/07 03:50:43;;;;;;;;;;;;;;;6.95;100.00;93084.03;2556796;23;19904;-82
2023/06/07 03:51:51;;;;;;;;;;;;;;;7.01;100.00;93082.47;2558984;23;19947;-83
2023/06/07 03:52:57;;;;;;;;;;;;;;;7.04;100.00;93080.94;2569242;23;19912;-83
2023/06/07 03:54:04;;;;;;;;;;;;;;;7.04;100.00;93076.38;2556820;23;19986;-83
2023/06/07 03:55:10;;;;;;;;;;;;;;;7.01;100.00;93079.06;2557065;23;19904;-83
2023/06/07 03:56:13;;;;;;;;;;;;;;;6.99;100.00;93081.38;2557704;23;19956;-84
2023/06/07 03:57:20;;;;;;;;;;;;;;;7.02;100.00;93084.00;2581251;22;20334;-83
2023/06/07 03:58:27;;;;;;;;;;;;;;;7.02;100.00;93073.38;2568485;23;20381;-82
2023/06/07 03:59:33;;;;;;;;;;;;;;;6.96;100.00;93079.47;2545714;23;20336;-84
2023/06/07 04:00:39;;;;;;;;;;;;;;;6.98;100.00;93075.28;2557320;23;19915;-84
2023/06/07 04:01:44;;;;;;;;;;;;;;;6.92;100.00;93076.84;2567772;23;19919;-83
2023/06/07 04:02:53;;;;;;;;;;;;;;;7.01;100.00;93077.16;2570301;22;19908;-83
2023/06/07 04:03:59;;;;;;;;;;;;;;;7.00;100.00;93066.91;2568076;23;19935;-82
2023/06/07 04:05:07;;;;;;;;;;;;;;;7.02;100.00;93078.69;2558248;23;20374;-82
2023/06/07 04:06:20;;;;;;;;;;;;;;;7.03;100.00;93074.88;2569383;23;19978;-84
2023/06/07 04:07:24;;;;;;;;;;;;;;;6.98;100.00;93069.97;2580588;23;19911;-84
2023/06/07 04:08:31;;;;;;;;;;;;;;;7.02;100.00;93073.38;2557005;23;20278;-83
2023/06/07 04:09:39;;;;;;;;;;;;;;;7.06;100.00;93075.97;2556704;23;20319;-82
2023/06/07 04:10:45;;;;;;;;;;;;;;;7.09;100.00;93077.84;2556782;23;20535;-84
2023/06/07 04:11:52;;;;;;;;;;;;;;;7.10;100.00;93070.63;2556623;23;20176;-84
2023/06/07 04:12:59;;;;;;;;;;;;;;;7.11;100.00;93078.19;2545239;23;20395;-82
2023/06/07 04:14:06;;;;;;;;;;;;;;;7.18;100.00;93078.13;2558353;23;20341;-85
2023/06/07 04:15:11;;;;;;;;;;;;;;;7.20;100.00;93080.38;2582326;22;20017;-83
2023/06/07 04:16:18;;;;;;;;;;;;;;;7.19;100.00;93073.56;2567537;23;19907;-84
2023/06/07 04:17:24;;;;;;;;;;;;;;;7.20;100.00;93072.41;2556760;23;19939;-83
2023/06/07 04:18:33;;;;;;;;;;;;;;;7.21;100.00;93072.03;2569423;23;20332;-83
2023/06/07 04:19:40;;;;;;;;;;;;;;;7.25;100.00;93072.75;2556859;23;20331;-81
2023/06/07 04:20:49;;;;;;;;;;;;;;;7.28;100.00;93071.94;2545704;23;19944;-84
2023/06/07 04:21:54;;;;;;;;;;;;;;;7.46;100.00;93084.31;2559299;23;19914;-83
2023/06/07 04:23:01;;;;;;;;;;;;;;;7.29;100.00;93070.06;2581458;22;19926;-83
2023/06/07 04:24:07;;;;;;;;;;;;;;;7.40;100.00;93075.28;2580993;23;19926;-83
2023/06/07 04:25:16;;;;;;;;;;;;;;;7.35;100.00;93079.13;2556714;23;19956;-83
2023/06/07 04:26:23;;;;;;;;;;;;;;;7.43;100.00;93077.16;2559108;23;19904;-83
2023/06/07 04:27:30;;;;;;;;;;;;;;;7.44;100.00;93081.31;2568948;23;19986;-82
2023/06/07 04:28:40;;;;;;;;;;;;;;;7.39;100.00;93071.84;2568355;23;19912;-83
2023/06/07 04:29:49;;;;;;;;;;;;;;;7.43;100.00;93077.91;2547521;23;20411;-83
2023/06/07 04:30:57;;;;;;;;;;;;;;;7.48;100.00;93076.72;2545368;23;19908;-82
2023/06/07 04:32:06;;;;;;;;;;;;;;;7.52;100.00;93078.19;2564016;22;20129;-84
2023/06/07 04:33:14;;;;;;;;;;;;;;;7.54;100.00;93078.53;2564185;23;19979;-83
2023/06/07 04:34:21;;;;;;;;;;;;;;;7.52;100.00;93078.19;2566760;23;20149;-81
2023/06/07 04:35:31;;;;;;;;;;;;;;;7.60;100.00;93083.44;2554980;23;19945;-84
2023/06/07 04:36:39;;;;;;;;;;;;;;;7.62;100.00;93081.88;2552666;23;20236;-83
2023/06/07 04:37:46;;;;;;;;;;;;;;;7.68;100.00;93079.50;2553775;23;19904;-83
2023/06/07 04:38:52;;;;;;;;;;;;;;;7.73;100.00;93081.75;2580574;22;20583;-84
2023/06/07 04:39:58;;;;;;;;;;;;;;;7.75;100.00;93079.44;2577657;23;20234;-84
2023/06/07 04:41:06;;;;;;;;;;;;;;;7.78;100.00;93076.75;2578057;22;19911;-83
2023/06/07 04:42:16;;;;;;;;;;;;;;;7.79;100.00;93080.91;2576905;23;19914;-82
2023/06/07 04:43:25;;;;;;;;;;;;;;;7.83;100.00;93083.53;2568582;22;19912;-83
2023/06/07 04:44:32;;;;;;;;;;;;;;;7.92;100.00;93083.03;2566620;23;19939;-83
2023/06/07 04:45:41;;;;;;;;;;;;;;;7.92;100.00;93081.13;2555531;23;19916;-83
2023/06/07 04:46:49;;;;;;;;;;;;;;;7.95;100.00;93075.03;2555472;23;19908;-83
2023/06/07 04:47:58;;;;;;;;;;;;;;;7.99;100.00;93078.41;2566561;23;19974;-83
2023/06/07 04:49:05;;;;;;;;;;;;;;;8.02;100.00;93074.16;2568721;22;20209;-84
2023/06/07 04:50:13;;;;;;;;;;;;;;;8.05;100.00;93070.72;2566086;23;20314;-83
2023/06/07 04:51:20;;;;;;;;;;;;;;;8.08;100.00;93073.34;2568085;22;19908;-83
2023/06/07 04:52:28;;;;;;;;;;;;;;;8.13;100.00;93066.81;2567191;23;19938;-82
2023/06/07 04:53:42;;;;;;;;;;;;;;;8.16;100.00;93073.97;2556446;23;19912;-84
2023/06/07 04:54:48;;;;;;;;;;;;;;;8.20;100.00;93071.28;2568469;23;19942;-84
2023/06/07 04:55:53;;;;;;;;;;;;;;;8.26;100.00;93083.75;2555899;23;20338;-83
2023/06/07 04:57:01;;;;;;;;;;;;;;;8.30;100.00;93081.03;2566866;23;19907;-82
2023/06/07 04:58:05;;;;;;;;;;;;;;;8.33;100.00;93078.31;2582949;22;20301;-84
2023/06/07 04:59:11;;;;;;;;;;;;;;;8.38;100.00;93081.72;2579091;22;20333;-84
2023/06/07 05:00:14;;;;;;;;;;;;;;;8.41;100.00;93078.25;2566633;23;19907;-83
2023/06/07 05:01:19;;;;;;;;;;;;;;;8.44;100.00;93075.53;2565090;22;20480;-82
2023/06/07 05:02:26;;;;;;;;;;;;;;;8.50;100.00;93079.25;2566756;23;19985;-84
2023/06/07 05:03:31;;;;;;;;;;;;;;;8.53;100.00;93077.69;2556031;23;20147;-84
2023/06/07 05:04:38;;;;;;;;;;;;;;;8.58;100.00;93075.31;2567855;22;19907;-83
2023/06/07 05:05:46;;;;;;;;;;;;;;;8.64;100.00;93078.28;2566312;23;19982;-84
2023/06/07 05:06:58;;;;;;;;;;;;;;;8.66;100.00;93073.31;2568480;22;19908;-85
2023/06/07 05:07:59;;;;;;;;;;;;;;;8.70;100.00;93075.94;2577638;23;19949;-82
2023/06/07 05:09:08;;;;;;;;;;;;;;;8.74;100.00;93081.97;2565792;23;19908;-82
2023/06/07 05:10:14;;;;;;;;;;;;;;;8.82;100.00;93078.78;2579826;22;19907;-83
2023/06/07 05:11:15;;;;;;;;;;;;;;;8.86;100.00;93081.38;2590439;22;20033;-84
2023/06/07 05:12:18;;;;;;;;;;;;;;;8.89;100.00;93087.81;2565897;23;20186;-83
2023/06/07 05:13:28;;;;;;;;;;;;;;;8.94;100.00;93079.34;2553973;23;19912;-85
2023/06/07 05:14:34;;;;;;;;;;;;;;;9.01;100.00;93076.56;2557082;23;20372;-82
2023/06/07 05:15:39;;;;;;;;;;;;;;;9.02;100.00;93081.50;2568170;22;19911;-81
2023/06/07 05:16:43;;;;;;;;;;;;;;;9.05;100.00;93079.94;2565879;23;19979;-83
2023/06/07 05:17:46;;;;;;;;;;;;;;;9.10;100.00;93073.38;2565340;23;20212;-83
2023/06/07 05:18:48;;;;;;;;;;;;;;;9.14;100.00;93069.50;2567042;22;20218;-84
2023/06/07 05:19:50;;;;;;;;;;;;;;;9.19;100.00;93074.34;2577891;23;19915;-84
2023/06/07 05:20:56;;;;;;;;;;;;;;;9.21;100.00;93074.69;2565745;23;19923;-86
2023/06/07 05:22:02;;;;;;;;;;;;;;;9.26;100.00;93076.13;2567898;23;19914;-86
2023/06/07 05:23:06;;;;;;;;;;;;;;;9.38;100.00;93072.88;2567461;23;19961;-85
2023/06/07 05:24:12;;;;;;;;;;;;;;;9.44;100.00;93076.59;2578361;22;19954;-83
2023/06/07 05:25:15;;;;;;;;;;;;;;;9.45;100.00;93072.75;2578953;22;19907;-84
2023/06/07 05:26:23;;;;;;;;;;;;;;;9.49;100.00;93072.69;2578046;22;20346;-82
2023/06/07 05:27:29;;;;;;;;;;;;;;;9.52;100.00;93069.94;2567239;23;20275;-83
2023/06/07 05:28:31;;;;;;;;;;;;;;;9.58;100.00;93072.91;2566115;23;20216;-84
2023/06/07 05:29:38;;;;;;;;;;;;;;;9.65;100.00;93074.69;2565533;22;19920;-83
2023/06/07 05:30:44;;;;;;;;;;;;;;;9.70;100.00;93074.97;2565926;23;19973;-86
2023/06/07 05:31:47;;;;;;;;;;;;;;;9.78;100.00;93070.22;2553621;23;19908;-85
2023/06/07 05:32:51;;;;;;;;;;;;;;;9.84;100.00;93073.94;2565976;22;19919;-85
2023/06/07 05:33:57;;;;;;;;;;;;;;;9.89;100.00;93075.38;2565657;23;19908;-84
2023/06/07 05:35:01;;;;;;;;;;;;;;;9.95;100.00;93079.06;2566240;23;20720;-86
2023/06/07 05:36:04;;;;;;;;;;;;;;;9.99;100.00;93074.41;2553748;23;19932;-83
2023/06/07 05:37:06;;;;;;;;;;;;;;;10.08;100.00;93070.00;2565334;23;19987;-85
2023/06/07 05:38:08;;;;;;;;;;;;;;;10.15;100.00;93077.13;2553570;23;19908;-84
2023/06/07 05:39:09;;;;;;;;;;;;;;;10.21;100.00;93069.38;2552811;23;19923;-84
2023/06/07 05:40:10;;;;;;;;;;;;;;;10.27;100.00;93073.06;2552810;23;20356;-86
2023/06/07 05:41:11;;;;;;;;;;;;;;;10.30;100.00;93078.34;2565009;22;19994;-84
2023/06/07 05:42:12;;;;;;;;;;;;;;;10.36;100.00;93083.97;2577514;23;19907;-87
2023/06/07 05:43:13;;;;;;;;;;;;;;;10.41;100.00;93078.13;2565153;23;19912;-83
2023/06/07 05:44:14;;;;;;;;;;;;;;;10.47;100.00;93076.47;2564645;23;19983;-86
2023/06/07 05:45:17;;;;;;;;;;;;;;;10.55;100.00;93077.06;2577144;23;19907;-84
2023/06/07 05:46:19;;;;;;;;;;;;;;;10.63;100.00;93073.06;2565311;23;20395;-82
2023/06/07 05:47:20;;;;;;;;;;;;;;;10.70;100.00;93077.50;2552516;23;20329;-83
2023/06/07 05:48:21;;;;;;;;;;;;;;;10.73;100.00;93079.34;2564506;23;20255;-86
2023/06/07 05:49:22;;;;;;;;;;;;;;;10.82;100.00;93076.84;2577930;22;19914;-83
2023/06/07 05:50:24;;;;;;;;;;;;;;;10.86;100.00;93072.16;2565276;23;19911;-82